createdAt,value
2022-11-14T00:01:20.963Z,14.63
2022-11-14T00:03:50.981Z,14.20
2022-11-14T00:09:07.080Z,15.13
2022-11-14T00:11:34.774Z,14.83
2022-11-14T00:14:03.798Z,13.80
2022-11-14T00:16:31.471Z,15.53
2022-11-14T00:18:59.096Z,14.23
2022-11-14T00:21:26.760Z,15.40
2022-11-14T00:23:54.441Z,14.57
2022-11-14T00:26:22.080Z,14.50
2022-11-14T00:28:49.716Z,13.83
2022-11-14T00:31:18.712Z,13.87
2022-11-14T00:33:46.376Z,12.67
2022-11-14T00:36:14.089Z,13.33
2022-11-14T00:38:41.959Z,12.67
2022-11-14T00:41:09.568Z,12.53
2022-11-14T00:43:37.229Z,12.10
2022-11-14T00:46:05.290Z,12.87
2022-11-14T00:48:34.383Z,12.87
2022-11-14T00:51:02.090Z,13.20
2022-11-14T00:53:29.789Z,12.50
2022-11-14T00:55:57.547Z,13.03
2022-11-14T00:58:25.178Z,13.07
2022-11-14T01:00:53.150Z,11.60
2022-11-14T01:03:21.248Z,12.40
2022-11-14T01:05:51.561Z,12.77
2022-11-14T01:08:20.311Z,11.73
2022-11-14T01:10:49.469Z,11.40
2022-11-14T01:13:18.061Z,10.20
2022-11-14T01:15:49.350Z,11.53
2022-11-14T01:18:18.823Z,10.70
2022-11-14T01:20:47.983Z,10.77
2022-11-14T01:23:18.135Z,10.67
2022-11-14T01:25:45.930Z,11.37
2022-11-14T01:28:14.957Z,10.93
2022-11-14T01:30:42.716Z,10.10
2022-11-14T01:33:10.730Z,10.67
2022-11-14T01:35:39.636Z,10.20
2022-11-14T01:38:07.556Z,10.93
2022-11-14T01:40:42.516Z,11.03
2022-11-14T01:43:26.228Z,9.80
2022-11-14T01:45:57.320Z,10.20
2022-11-14T01:48:29.284Z,10.50
2022-11-14T01:50:59.339Z,10.17
2022-11-14T01:53:27.478Z,9.93
2022-11-14T01:55:58.753Z,10.30
2022-11-14T01:58:27.392Z,10.27
2022-11-14T02:00:55.644Z,10.17
2022-11-14T02:03:23.304Z,10.13
2022-11-14T02:05:51.538Z,11.80
2022-11-14T02:08:19.372Z,10.87
2022-11-14T02:10:47.014Z,10.20
2022-11-14T02:13:16.039Z,10.67
2022-11-14T02:15:43.771Z,10.87
2022-11-14T02:18:12.375Z,10.77
2022-11-14T02:20:43.291Z,10.77
2022-11-14T02:23:11.873Z,9.57
2022-11-14T02:25:40.061Z,9.60
2022-11-14T02:28:09.050Z,9.47
2022-11-14T02:30:36.714Z,9.37
2022-11-14T02:33:12.028Z,9.57
2022-11-14T02:35:41.408Z,9.90
2022-11-14T02:38:09.241Z,8.97
2022-11-14T02:40:36.936Z,9.40
2022-11-14T02:43:04.765Z,10.73
2022-11-14T02:45:32.430Z,10.50
2022-11-14T02:48:00.043Z,10.33
2022-11-14T02:50:27.711Z,10.23
2022-11-14T02:52:56.703Z,9.67
2022-11-14T02:55:24.344Z,10.00
2022-11-14T02:57:51.963Z,9.43
2022-11-14T03:00:20.442Z,9.43
2022-11-14T03:02:48.162Z,10.53
2022-11-14T03:05:15.879Z,9.67
2022-11-14T03:07:43.634Z,10.07
2022-11-14T03:10:13.913Z,9.80
2022-11-14T03:12:41.689Z,9.83
2022-11-14T03:15:10.721Z,9.83
2022-11-14T03:17:38.675Z,10.80
2022-11-14T03:20:07.484Z,11.00
2022-11-14T03:22:35.131Z,11.93
2022-11-14T03:25:02.991Z,10.73
2022-11-14T03:27:32.015Z,11.27
2022-11-14T03:29:59.648Z,11.17
2022-11-14T03:32:27.312Z,11.63
2022-11-14T03:34:54.991Z,11.00
2022-11-14T03:37:22.663Z,10.63
2022-11-14T03:39:50.325Z,10.83
2022-11-14T03:42:18.016Z,10.20
2022-11-14T03:44:47.064Z,9.30
2022-11-14T03:47:14.730Z,9.50
2022-11-14T03:49:44.941Z,9.67
2022-11-14T03:52:13.256Z,9.40
2022-11-14T03:54:40.890Z,9.03
2022-11-14T03:57:08.509Z,9.10
2022-11-14T03:59:36.171Z,7.90
2022-11-14T04:02:05.257Z,8.17
2022-11-14T04:04:32.919Z,8.10
2022-11-14T04:09:47.166Z,7.50
2022-11-14T04:12:16.027Z,7.20
2022-11-14T04:14:43.837Z,7.33
2022-11-14T04:17:12.842Z,7.00
2022-11-14T04:19:40.508Z,6.97
2022-11-14T04:22:08.203Z,7.47
2022-11-14T04:24:35.907Z,8.20
2022-11-14T04:27:03.568Z,7.30
2022-11-14T04:29:31.390Z,7.23
2022-11-14T04:31:59.068Z,7.13
2022-11-14T04:34:28.093Z,6.80
2022-11-14T04:36:55.753Z,7.30
2022-11-14T04:39:23.430Z,6.87
2022-11-14T04:41:51.090Z,7.60
2022-11-14T04:44:18.727Z,6.70
2022-11-14T04:46:46.452Z,7.00
2022-11-14T04:49:14.241Z,7.30
2022-11-14T04:51:43.522Z,7.30
2022-11-14T04:54:11.141Z,6.07
2022-11-14T04:56:38.860Z,6.23
2022-11-14T04:59:06.559Z,6.60
2022-11-14T05:01:34.357Z,6.43
2022-11-14T05:04:02.069Z,7.00
2022-11-14T05:06:29.684Z,6.67
2022-11-14T05:08:58.723Z,6.00
2022-11-14T05:11:29.191Z,6.50
2022-11-14T05:13:57.206Z,6.10
2022-11-14T05:16:25.206Z,6.17
2022-11-14T05:18:54.584Z,6.20
2022-11-14T05:21:22.298Z,6.30
2022-11-14T05:23:50.027Z,5.60
2022-11-14T05:26:19.543Z,5.67
2022-11-14T05:28:47.357Z,5.93
2022-11-14T05:31:17.780Z,5.93
2022-11-14T05:33:45.940Z,5.40
2022-11-14T05:36:14.894Z,5.80
2022-11-14T05:38:42.902Z,5.20
2022-11-14T05:41:11.977Z,5.60
2022-11-14T05:43:41.409Z,5.10
2022-11-14T05:46:11.398Z,5.60
2022-11-14T05:48:39.319Z,5.43
2022-11-14T05:51:08.408Z,5.17
2022-11-14T05:53:36.376Z,5.03
2022-11-14T05:56:05.185Z,5.60
2022-11-14T05:58:33.262Z,5.23
2022-11-14T06:01:07.341Z,5.10
2022-11-14T06:03:36.244Z,5.03
2022-11-14T06:06:05.385Z,5.50
2022-11-14T06:08:33.605Z,4.57
2022-11-14T06:11:03.959Z,5.23
2022-11-14T06:13:31.807Z,5.17
2022-11-14T06:16:01.398Z,5.30
2022-11-14T06:18:31.555Z,4.90
2022-11-14T06:21:00.711Z,4.77
2022-11-14T06:23:28.455Z,4.70
2022-11-14T06:25:59.603Z,4.70
2022-11-14T06:28:27.646Z,4.40
2022-11-14T06:30:58.799Z,5.00
2022-11-14T06:33:26.766Z,4.77
2022-11-14T06:36:00.308Z,4.80
2022-11-14T06:38:28.183Z,4.70
2022-11-14T06:41:03.362Z,4.47
2022-11-14T06:43:33.716Z,4.80
2022-11-14T06:46:01.341Z,4.90
2022-11-14T06:48:29.549Z,4.60
2022-11-14T06:50:59.564Z,4.20
2022-11-14T06:53:29.344Z,4.73
2022-11-14T06:55:57.775Z,4.40
2022-11-14T06:58:27.790Z,3.93
2022-11-14T07:00:55.722Z,3.90
2022-11-14T07:03:24.305Z,4.80
2022-11-14T07:05:52.031Z,4.60
2022-11-14T07:08:21.396Z,4.63
2022-11-14T07:10:49.115Z,5.23
2022-11-14T07:13:16.815Z,5.20
2022-11-14T07:15:51.125Z,4.30
2022-11-14T07:18:18.797Z,4.57
2022-11-14T07:20:46.469Z,5.00
2022-11-14T07:23:14.846Z,4.83
2022-11-14T07:25:43.890Z,4.77
2022-11-14T07:28:11.582Z,4.90
2022-11-14T07:30:39.247Z,4.93
2022-11-14T07:33:07.355Z,5.27
2022-11-14T07:35:35.020Z,4.90
2022-11-14T07:38:03.586Z,4.80
2022-11-14T07:40:31.277Z,4.17
2022-11-14T07:43:01.047Z,4.23
2022-11-14T07:45:29.536Z,4.63
2022-11-14T07:47:58.065Z,4.60
2022-11-14T07:50:25.801Z,4.60
2022-11-14T07:52:53.989Z,5.10
2022-11-14T07:55:22.080Z,5.00
2022-11-14T07:57:49.791Z,5.40
2022-11-14T08:00:19.420Z,5.00
2022-11-14T08:02:47.581Z,5.30
2022-11-14T08:05:15.412Z,5.47
2022-11-14T08:07:48.440Z,5.50
2022-11-14T08:10:17.739Z,4.87
2022-11-14T08:12:45.500Z,4.93
2022-11-14T08:15:14.270Z,4.87
2022-11-14T08:17:43.280Z,5.23
2022-11-14T08:20:11.984Z,5.33
2022-11-14T08:22:39.647Z,4.90
2022-11-14T08:25:08.240Z,5.07
2022-11-14T08:27:35.903Z,5.10
2022-11-14T08:30:03.641Z,4.97
2022-11-14T08:32:31.284Z,5.30
2022-11-14T08:35:00.308Z,4.87
2022-11-14T08:37:28.029Z,5.33
2022-11-14T08:39:55.662Z,5.60
2022-11-14T08:42:23.349Z,5.37
2022-11-14T08:44:52.272Z,5.43
2022-11-14T08:47:22.296Z,4.90
2022-11-14T08:49:49.993Z,4.90
2022-11-14T08:52:19.018Z,5.30
2022-11-14T08:54:46.643Z,4.73
2022-11-14T08:57:15.350Z,5.43
2022-11-14T08:59:43.103Z,4.87
2022-11-14T09:02:11.465Z,5.30
2022-11-14T09:04:39.231Z,5.17
2022-11-14T09:07:07.634Z,4.83
2022-11-14T09:09:36.697Z,4.83
2022-11-14T09:12:06.409Z,5.67
2022-11-14T09:14:34.141Z,5.23
2022-11-14T09:17:05.722Z,4.90
2022-11-14T09:19:33.876Z,4.80
2022-11-14T09:22:01.531Z,4.67
2022-11-14T09:24:29.249Z,4.83
2022-11-14T09:26:58.262Z,4.97
2022-11-14T09:29:25.932Z,4.20
2022-11-14T09:31:57.124Z,4.50
2022-11-14T09:34:24.774Z,3.83
2022-11-14T09:36:52.415Z,4.50
2022-11-14T09:39:20.080Z,4.53
2022-11-14T09:41:57.782Z,4.07
2022-11-14T09:44:47.211Z,3.63
2022-11-14T09:47:20.665Z,3.60
2022-11-14T09:49:51.198Z,4.00
2022-11-14T09:52:26.741Z,3.70
2022-11-14T09:54:57.525Z,3.43
2022-11-14T09:57:26.467Z,3.57
2022-11-14T09:59:56.168Z,3.70
2022-11-14T10:02:41.234Z,3.60
2022-11-14T10:05:23.029Z,3.30
2022-11-14T10:10:38.495Z,3.70
2022-11-14T10:13:17.805Z,3.77
2022-11-14T10:15:53.643Z,3.60
2022-11-14T10:18:33.430Z,3.67
2022-11-14T10:21:10.713Z,3.07
2022-11-14T10:23:45.403Z,3.60
2022-11-14T10:26:20.405Z,3.73
2022-11-14T10:29:04.390Z,3.37
2022-11-14T10:31:43.681Z,3.43
2022-11-14T10:34:15.833Z,3.00
2022-11-14T10:36:51.217Z,2.90
2022-11-14T10:39:24.741Z,2.90
2022-11-14T10:41:58.818Z,3.27
2022-11-14T10:44:34.135Z,2.97
2022-11-14T10:47:06.512Z,2.87
2022-11-14T10:49:37.090Z,2.80
2022-11-14T10:52:07.413Z,2.90
2022-11-14T10:54:39.634Z,2.73
2022-11-14T10:57:16.231Z,3.00
2022-11-14T10:59:44.229Z,2.80
2022-11-14T11:02:13.352Z,2.53
2022-11-14T11:04:41.692Z,2.67
2022-11-14T11:07:43.679Z,2.60
2022-11-14T11:10:39.647Z,2.67
2022-11-14T11:13:07.347Z,2.10
2022-11-14T11:15:41.801Z,2.13
2022-11-14T11:18:27.099Z,2.20
2022-11-14T11:21:06.853Z,2.07
2022-11-14T11:23:35.041Z,2.27
2022-11-14T11:26:07.736Z,2.20
2022-11-14T11:28:36.599Z,2.00
2022-11-14T11:31:05.816Z,2.00
2022-11-14T11:33:35.811Z,2.30
2022-11-14T11:36:05.813Z,2.30
2022-11-14T11:38:34.932Z,1.90
2022-11-14T11:41:15.537Z,2.13
2022-11-14T11:43:57.195Z,1.90
2022-11-14T11:46:27.826Z,2.20
2022-11-14T11:49:03.426Z,2.30
2022-11-14T11:51:42.403Z,2.00
2022-11-14T11:54:15.444Z,2.50
2022-11-14T11:56:44.523Z,2.87
2022-11-14T11:59:22.774Z,2.60
2022-11-14T12:01:51.890Z,2.63
2022-11-14T12:04:21.077Z,2.87
2022-11-14T12:06:54.726Z,2.80
2022-11-14T12:09:42.532Z,3.00
2022-11-14T12:12:18.460Z,3.30
2022-11-14T12:14:56.546Z,2.80
2022-11-14T12:17:40.505Z,3.03
2022-11-14T12:20:53.715Z,3.47
2022-11-14T12:23:46.615Z,3.33
2022-11-14T12:26:26.045Z,3.33
2022-11-14T12:29:13.194Z,3.33
2022-11-14T12:31:41.282Z,3.27
2022-11-14T12:34:16.612Z,2.80
2022-11-14T12:36:45.762Z,2.97
2022-11-14T12:39:25.423Z,2.80
2022-11-14T12:42:01.840Z,2.57
2022-11-14T12:44:37.553Z,2.63
2022-11-14T12:47:19.819Z,3.00
2022-11-14T12:50:41.386Z,2.87
2022-11-14T12:53:43.071Z,2.80
2022-11-14T12:56:27.144Z,2.80
2022-11-14T12:59:17.527Z,2.70
2022-11-14T13:01:51.929Z,2.70
2022-11-14T13:04:28.186Z,2.00
2022-11-14T13:07:05.504Z,2.30
2022-11-14T13:09:36.152Z,2.10
2022-11-14T13:12:48.360Z,2.30
2022-11-14T13:16:01.909Z,2.00
2022-11-14T13:18:47.037Z,2.10
2022-11-14T13:21:43.822Z,2.00
2022-11-14T13:24:16.112Z,2.50
2022-11-14T13:26:45.795Z,2.47
2022-11-14T13:30:00.004Z,2.50
2022-11-14T13:33:04.986Z,2.80
2022-11-14T13:36:05.088Z,2.60
2022-11-14T13:39:00.064Z,2.90
2022-11-14T13:41:47.354Z,2.90
2022-11-14T13:44:49.314Z,3.00
2022-11-14T13:47:26.895Z,3.17
2022-11-14T13:50:00.074Z,3.20
2022-11-14T13:52:32.660Z,3.57
2022-11-14T13:55:00.588Z,4.07
2022-11-14T13:57:36.733Z,3.80
2022-11-14T14:00:16.768Z,4.20
2022-11-14T14:03:09.301Z,4.20
2022-11-14T14:05:48.721Z,3.90
2022-11-14T14:11:10.181Z,3.17
2022-11-14T14:13:46.611Z,3.13
2022-11-14T14:16:22.840Z,2.77
2022-11-14T14:18:58.579Z,2.83
2022-11-14T14:21:35.501Z,3.27
2022-11-14T14:24:08.999Z,2.93
2022-11-14T14:26:44.561Z,2.80
2022-11-14T14:29:22.318Z,3.07
2022-11-14T14:31:50.007Z,3.27
2022-11-14T14:34:23.654Z,3.30
2022-11-14T14:36:52.144Z,2.90
2022-11-14T14:39:21.796Z,2.93
2022-11-14T14:41:50.964Z,3.03
2022-11-14T14:44:23.742Z,2.67
2022-11-14T14:46:51.549Z,3.03
2022-11-14T14:49:22.207Z,3.03
2022-11-14T14:51:54.435Z,2.50
2022-11-14T14:54:26.313Z,2.93
2022-11-14T14:56:56.547Z,3.30
2022-11-14T14:59:25.846Z,3.67
2022-11-14T15:01:55.789Z,3.83
2022-11-14T15:04:24.788Z,3.90
2022-11-14T15:06:52.585Z,3.90
2022-11-14T15:09:23.328Z,4.20
2022-11-14T15:11:52.432Z,4.20
2022-11-14T15:14:23.756Z,4.93
2022-11-14T15:16:51.889Z,4.50
2022-11-14T15:19:22.049Z,5.27
2022-11-14T15:22:26.122Z,4.90
2022-11-14T15:25:18.328Z,4.50
2022-11-14T15:27:48.437Z,4.80
2022-11-14T15:30:25.551Z,5.00
2022-11-14T15:32:55.134Z,5.47
2022-11-14T15:35:30.096Z,5.43
2022-11-14T15:38:36.930Z,5.70
2022-11-14T15:41:27.947Z,5.10
2022-11-14T15:44:01.803Z,5.07
2022-11-14T15:46:38.712Z,5.57
2022-11-14T15:49:11.070Z,5.33
2022-11-14T15:51:40.330Z,5.63
2022-11-14T15:54:23.953Z,5.30
2022-11-14T15:56:52.116Z,6.10
2022-11-14T15:59:20.032Z,7.80
2022-11-14T16:01:52.489Z,9.40
2022-11-14T16:04:21.942Z,9.97
2022-11-14T16:06:49.803Z,12.07
2022-11-14T16:09:19.097Z,11.37
2022-11-14T16:11:48.865Z,11.97
2022-11-14T16:14:16.871Z,11.03
2022-11-14T16:16:44.505Z,11.07
2022-11-14T16:19:14.340Z,9.53
2022-11-14T16:21:42.414Z,8.63
2022-11-14T16:24:16.523Z,6.97
2022-11-14T16:26:44.374Z,5.50
2022-11-14T16:29:12.151Z,5.17
2022-11-14T16:31:39.977Z,5.50
2022-11-14T16:34:07.696Z,5.27
2022-11-14T16:36:36.731Z,5.97
2022-11-14T16:39:10.402Z,5.43
2022-11-14T16:41:38.130Z,5.27
2022-11-14T16:44:06.118Z,5.10
2022-11-14T16:46:33.816Z,5.07
2022-11-14T16:49:01.505Z,5.40
2022-11-14T16:54:18.533Z,5.07
2022-11-14T16:56:46.318Z,5.00
2022-11-14T16:59:14.446Z,4.70
2022-11-14T17:01:42.316Z,4.63
2022-11-14T17:04:10.160Z,5.53
2022-11-14T17:06:37.890Z,6.17
2022-11-14T17:09:05.775Z,7.20
2022-11-14T17:11:34.848Z,6.70
2022-11-14T17:14:02.528Z,7.10
2022-11-14T17:16:30.160Z,7.00
2022-11-14T17:18:57.848Z,6.87
2022-11-14T17:21:26.390Z,6.00
2022-11-14T17:23:55.551Z,5.67
2022-11-14T17:26:23.356Z,5.93
2022-11-14T17:28:52.482Z,6.67
2022-11-14T17:31:20.303Z,6.47
2022-11-14T17:33:52.309Z,6.53
2022-11-14T17:36:20.401Z,7.00
2022-11-14T17:38:48.124Z,7.30
2022-11-14T17:41:15.823Z,7.37
2022-11-14T17:43:43.824Z,7.83
2022-11-14T17:46:16.253Z,8.07
2022-11-14T17:48:44.259Z,8.33
2022-11-14T17:51:13.386Z,8.77
2022-11-14T17:53:41.196Z,8.63
2022-11-14T17:56:10.165Z,7.90
2022-11-14T17:58:37.867Z,8.13
2022-11-14T18:01:10.574Z,7.53
2022-11-14T18:03:39.920Z,6.90
2022-11-14T18:06:09.150Z,6.77
2022-11-14T18:08:37.027Z,5.97
2022-11-14T18:11:05.516Z,6.10
2022-11-14T18:13:33.277Z,5.90
2022-11-14T18:16:04.588Z,6.83
2022-11-14T18:18:33.041Z,6.50
2022-11-14T18:21:07.567Z,7.10
2022-11-14T18:23:36.282Z,8.10
2022-11-14T18:26:10.095Z,7.63
2022-11-14T18:28:37.807Z,7.83
2022-11-14T18:31:07.412Z,7.30
2022-11-14T18:33:35.790Z,7.27
2022-11-14T18:36:07.260Z,8.30
2022-11-14T18:38:35.145Z,8.30
2022-11-14T18:41:04.357Z,7.83
2022-11-14T18:43:33.960Z,8.77
2022-11-14T18:46:06.639Z,8.70
2022-11-14T18:48:34.576Z,8.50
2022-11-14T18:51:03.995Z,8.97
2022-11-14T18:53:32.941Z,8.93
2022-11-14T18:56:04.936Z,8.40
2022-11-14T18:58:32.768Z,8.27
2022-11-14T19:01:00.495Z,7.73
2022-11-14T19:03:28.903Z,8.00
2022-11-14T19:05:56.858Z,9.00
2022-11-14T19:08:25.898Z,8.47
2022-11-14T19:10:54.176Z,9.27
2022-11-14T19:13:25.049Z,9.83
2022-11-14T19:15:52.709Z,10.00
2022-11-14T19:18:20.400Z,9.83
2022-11-14T19:20:57.053Z,10.33
2022-11-14T19:23:26.570Z,10.50
2022-11-14T19:25:59.538Z,10.90
2022-11-14T19:28:27.312Z,11.13
2022-11-14T19:30:55.037Z,11.20
2022-11-14T19:33:22.688Z,11.23
2022-11-14T19:35:50.370Z,10.80
2022-11-14T19:38:18.059Z,11.07
2022-11-14T19:40:50.803Z,11.67
2022-11-14T19:43:18.739Z,11.00
2022-11-14T19:45:46.476Z,10.57
2022-11-14T19:48:14.509Z,10.07
2022-11-14T19:50:42.250Z,11.50
2022-11-14T19:53:10.166Z,10.80
2022-11-14T19:55:37.916Z,9.73
2022-11-14T19:58:06.975Z,9.67
2022-11-14T20:00:34.670Z,9.03
2022-11-14T20:03:02.391Z,9.10
2022-11-14T20:05:30.191Z,9.27
2022-11-14T20:07:57.952Z,8.87
2022-11-14T20:10:25.672Z,9.93
2022-11-14T20:12:53.449Z,8.80
2022-11-14T20:15:22.570Z,10.27
2022-11-14T20:17:50.328Z,9.20
2022-11-14T20:20:18.128Z,9.77
2022-11-14T20:22:45.884Z,9.80
2022-11-14T20:25:15.673Z,9.47
2022-11-14T20:27:43.476Z,8.93
2022-11-14T20:30:11.824Z,9.50
2022-11-14T20:32:41.030Z,9.70
2022-11-14T20:35:09.205Z,10.20
2022-11-14T20:37:36.922Z,10.07
2022-11-14T20:40:05.095Z,10.90
2022-11-14T20:42:32.858Z,9.80
2022-11-14T20:45:00.649Z,10.20
2022-11-14T20:47:29.917Z,9.43
2022-11-14T20:49:59.015Z,10.00
2022-11-14T20:52:26.705Z,10.53
2022-11-14T20:54:54.515Z,10.37
2022-11-14T20:57:22.256Z,10.57
2022-11-14T20:59:50.013Z,9.77
2022-11-14T21:02:17.840Z,9.73
2022-11-14T21:04:45.575Z,9.20
2022-11-14T21:07:14.704Z,9.40
2022-11-14T21:09:42.470Z,10.40
2022-11-14T21:12:10.161Z,9.43
2022-11-14T21:14:37.930Z,9.33
2022-11-14T21:17:05.669Z,10.00
2022-11-14T21:19:33.371Z,9.10
2022-11-14T21:22:01.074Z,8.93
2022-11-14T21:24:30.100Z,9.63
2022-11-14T21:26:57.794Z,10.17
2022-11-14T21:29:25.571Z,9.97
2022-11-14T21:31:53.216Z,9.80
2022-11-14T21:34:21.178Z,10.20
2022-11-14T21:36:49.335Z,10.30
2022-11-14T21:39:17.784Z,10.50
2022-11-14T21:41:48.433Z,10.30
2022-11-14T21:44:17.614Z,10.83
2022-11-14T21:46:47.131Z,10.53
2022-11-14T21:49:15.019Z,10.33
2022-11-14T21:51:42.782Z,10.10
2022-11-14T21:54:10.823Z,10.30
2022-11-14T21:56:38.656Z,10.13
2022-11-14T21:59:16.834Z,10.47
2022-11-14T22:02:03.765Z,10.23
2022-11-14T22:04:32.351Z,10.60
2022-11-14T22:07:00.254Z,10.10
2022-11-14T22:12:21.926Z,9.73
2022-11-14T22:14:53.310Z,10.53
2022-11-14T22:17:20.974Z,10.50
2022-11-14T22:19:48.619Z,10.37
2022-11-14T22:22:16.331Z,9.80
2022-11-14T22:24:43.967Z,10.53
2022-11-14T22:27:11.640Z,10.37
2022-11-14T22:29:39.373Z,10.40
2022-11-14T22:32:08.856Z,10.47
2022-11-14T22:34:36.495Z,10.37
2022-11-14T22:37:04.203Z,10.83
2022-11-14T22:39:31.824Z,11.03
2022-11-14T22:41:59.523Z,11.17
2022-11-14T22:44:27.202Z,10.53
2022-11-14T22:46:54.898Z,11.37
2022-11-14T22:49:23.856Z,11.77
2022-11-14T22:51:51.552Z,11.87
2022-11-14T22:54:20.428Z,12.07
2022-11-14T22:56:48.049Z,12.93
2022-11-14T22:59:15.688Z,13.47
2022-11-14T23:01:43.519Z,13.40
2022-11-14T23:04:11.229Z,13.40
2022-11-14T23:06:40.364Z,12.57
2022-11-14T23:09:08.075Z,12.90
2022-11-14T23:11:35.770Z,12.60
2022-11-14T23:14:04.158Z,12.70
2022-11-14T23:16:33.480Z,11.87
2022-11-14T23:19:02.903Z,12.80
2022-11-14T23:21:32.107Z,12.57
2022-11-14T23:24:02.819Z,12.47
2022-11-14T23:26:31.198Z,12.77
2022-11-14T23:28:59.148Z,12.90
2022-11-14T23:31:27.282Z,14.50
2022-11-14T23:33:56.131Z,13.97
2022-11-14T23:36:23.890Z,14.30
2022-11-14T23:38:52.916Z,12.70
2022-11-14T23:41:23.163Z,13.73
2022-11-14T23:43:50.891Z,12.90
2022-11-14T23:46:18.568Z,13.50
2022-11-14T23:48:46.197Z,14.00
2022-11-14T23:51:13.955Z,13.87
2022-11-14T23:53:41.795Z,14.20
2022-11-14T23:56:12.275Z,13.40
2022-11-14T23:58:41.893Z,12.83
